Time;durP1;ratioP1;P1;durP2;ratioP2;P2;SDS_P1;SDS_P2;PMS_P1;PMS_P2;Temp;Humidity;BMP_temperature;BMP_pressure;BME280_temperature;BME280_humidity;BME280_pressure;Samples;Min_cycle;Max_cycle;Signal;HPM_P1;HPM_P2
2021/01/02 00:01:04;;;;;;;80.70;34.63;;;;;;;-140.05;100.00;61859.38;5030379;28;20225;-67
2021/01/02 00:03:33;;;;;;;80.68;38.10;;;;;;;-140.05;100.00;61859.38;5031734;28;20292;-68
2021/01/02 00:06:05;;;;;;;147.65;68.97;;;;;;;-140.05;100.00;61859.38;5030839;28;20691;-66
2021/01/02 00:08:37;;;;;;;163.65;80.38;;;;;;;-140.05;100.00;61859.38;5030937;28;20635;-67
2021/01/02 00:11:34;;;;;;;150.48;67.78;;;;;;;-140.05;100.00;61859.38;5027399;28;20197;-63
2021/01/02 00:14:21;;;;;;;176.52;84.70;;;;;;;-140.05;100.00;61859.38;5029050;28;20259;-65
2021/01/02 00:17:03;;;;;;;184.60;83.85;;;;;;;-140.05;100.00;61859.38;5026425;28;20239;-64
2021/01/02 00:19:50;;;;;;;180.52;81.47;;;;;;;-140.05;100.00;61859.38;5028443;28;20286;-65
2021/01/02 00:22:45;;;;;;;163.95;74.30;;;;;;;-140.05;100.00;61859.38;5028980;28;20193;-66
2021/01/02 00:25:14;;;;;;;166.18;76.85;;;;;;;-140.05;100.00;61859.38;5029184;28;20208;-64
2021/01/02 00:27:57;;;;;;;152.88;71.32;;;;;;;-140.05;100.00;61859.38;5030386;28;20193;-63
2021/01/02 00:30:24;;;;;;;160.00;71.40;;;;;;;-140.05;100.00;61859.38;5028965;28;20208;-64
2021/01/02 00:33:12;;;;;;;144.52;66.65;;;;;;;-140.05;100.00;61859.38;5029796;28;20279;-67
2021/01/02 00:35:41;;;;;;;142.02;64.85;;;;;;;-140.05;100.00;61859.38;5028381;28;20298;-64
2021/01/02 00:38:08;;;;;;;132.90;62.47;;;;;;;-140.05;100.00;61859.38;5029547;28;20185;-64
2021/01/02 00:40:36;;;;;;;122.28;55.95;;;;;;;-140.05;100.00;61859.38;5027436;28;20193;-66
2021/01/02 00:43:04;;;;;;;112.07;52.55;;;;;;;-140.05;100.00;61859.38;5029992;28;20276;-65
2021/01/02 00:45:34;;;;;;;121.60;61.33;;;;;;;-140.05;100.00;61859.38;5027851;28;20205;-67
2021/01/02 00:48:03;;;;;;;117.78;61.45;;;;;;;-140.05;100.00;61859.38;5044781;28;20203;-66
2021/01/02 00:50:31;;;;;;;289.40;152.13;;;;;;;-140.05;100.00;61859.38;5044003;28;20879;-65
2021/01/02 00:53:23;;;;;;;152.10;71.45;;;;;;;-140.05;100.00;61859.38;5029455;28;20589;-64
2021/01/02 00:56:06;;;;;;;147.90;68.22;;;;;;;-140.05;100.00;61859.38;5023112;28;20311;-67
2021/01/02 00:58:53;;;;;;;154.25;69.22;;;;;;;-140.05;100.00;61859.38;5058538;28;20198;-66
2021/01/02 01:01:40;;;;;;;126.38;58.75;;;;;;;-140.05;100.00;61859.38;5052259;28;20201;-63
2021/01/02 01:04:25;;;;;;;104.00;49.85;;;;;;;-140.05;100.00;61859.38;5041700;28;20227;-66
2021/01/02 01:06:55;;;;;;;114.28;55.80;;;;;;;-140.05;100.00;61859.38;5027427;28;20659;-63
2021/01/02 01:09:24;;;;;;;110.93;52.88;;;;;;;-140.05;100.00;61859.38;5028894;28;20201;-63
2021/01/02 01:11:54;;;;;;;103.45;49.78;;;;;;;-140.05;100.00;61859.38;5029312;28;20209;-66
2021/01/02 01:14:22;;;;;;;106.78;49.53;;;;;;;-140.05;100.00;61859.38;5028987;28;20272;-63
2021/01/02 01:16:51;;;;;;;94.80;45.10;;;;;;;-140.05;100.00;61859.38;5029284;28;20221;-66
2021/01/02 01:19:24;;;;;;;92.45;42.85;;;;;;;-140.05;100.00;61859.38;5028696;28;20189;-66
2021/01/02 01:21:53;;;;;;;86.28;43.25;;;;;;;-140.05;100.00;61859.38;5026782;28;20284;-64
2021/01/02 01:24:41;;;;;;;100.53;46.45;;;;;;;-140.05;100.00;61859.38;5028254;28;20198;-65
2021/01/02 01:27:17;;;;;;;91.97;43.63;;;;;;;-140.05;100.00;61859.38;5031242;28;20586;-64
2021/01/02 01:29:46;;;;;;;82.53;40.20;;;;;;;-140.05;100.00;61859.38;5027977;28;20289;-66
2021/01/02 01:32:19;;;;;;;79.68;38.78;;;;;;;-140.05;100.00;61859.38;5027887;28;20192;-65
2021/01/02 01:34:48;;;;;;;71.13;36.38;;;;;;;-140.05;100.00;61859.38;5025325;28;20243;-66
2021/01/02 01:37:17;;;;;;;75.55;37.67;;;;;;;-140.05;100.00;61859.38;5028382;28;21039;-66
2021/01/02 01:39:50;;;;;;;82.47;41.03;;;;;;;-140.05;100.00;61859.38;5028245;28;20289;-66
2021/01/02 01:42:36;;;;;;;91.45;43.42;;;;;;;-140.05;100.00;61859.38;5028521;28;20208;-66
2021/01/02 01:45:38;;;;;;;90.82;41.33;;;;;;;-140.05;100.00;61859.38;5027918;28;20216;-62
2021/01/02 01:48:10;;;;;;;86.70;42.20;;;;;;;-140.05;100.00;61859.38;5028131;28;20751;-66
2021/01/02 01:50:59;;;;;;;91.78;45.03;;;;;;;-140.05;100.00;61859.38;5027745;28;20220;-66
2021/01/02 01:53:31;;;;;;;107.63;49.90;;;;;;;-140.05;100.00;61859.38;5028053;28;20288;-62
2021/01/02 01:56:03;;;;;;;106.20;51.00;;;;;;;-140.05;100.00;61859.38;5028226;28;20301;-62
2021/01/02 01:58:51;;;;;;;103.93;51.30;;;;;;;-140.05;100.00;61859.38;5026029;28;20271;-65
2021/01/02 02:01:24;;;;;;;106.72;48.75;;;;;;;-140.05;100.00;61859.38;5027234;28;20220;-65
2021/01/02 02:04:32;;;;;;;107.05;50.53;;;;;;;-140.05;100.00;61859.38;5025340;28;20233;-63
2021/01/02 02:07:01;;;;;;;106.78;48.40;;;;;;;-140.05;100.00;61859.38;5019704;28;20363;-65
2021/01/02 02:09:41;;;;;;;90.35;44.38;;;;;;;-140.05;100.00;61859.38;5025231;28;20208;-65
2021/01/02 02:12:23;;;;;;;94.63;44.42;;;;;;;-140.05;100.00;61859.38;5028283;28;20243;-65
2021/01/02 02:15:00;;;;;;;101.40;46.33;;;;;;;-140.05;100.00;61859.38;5025245;28;20185;-64
2021/01/02 02:17:37;;;;;;;109.53;47.53;;;;;;;-140.05;100.00;61859.38;5027699;28;20296;-67
2021/01/02 02:20:09;;;;;;;85.65;41.83;;;;;;;-140.05;100.00;61859.38;5027406;28;20197;-64
2021/01/02 02:22:37;;;;;;;80.38;40.45;;;;;;;-140.05;100.00;61859.38;5028152;28;20213;-64
2021/01/02 02:25:07;;;;;;;74.35;38.90;;;;;;;-140.05;100.00;61859.38;5027218;28;20287;-67
2021/01/02 02:27:40;;;;;;;80.25;40.20;;;;;;;-140.05;100.00;61859.38;5026333;28;20195;-67
2021/01/02 02:30:33;;;;;;;85.90;41.20;;;;;;;-140.05;100.00;61859.38;5027435;28;20577;-66
2021/01/02 02:33:07;;;;;;;84.47;39.78;;;;;;;-140.05;100.00;61859.38;5031572;28;20292;-64
2021/01/02 02:35:36;;;;;;;86.05;41.67;;;;;;;-140.05;100.00;61859.38;5024929;28;20268;-62
2021/01/02 02:38:03;;;;;;;86.72;41.45;;;;;;;-140.05;100.00;61859.38;5027482;28;20189;-65
2021/01/02 02:40:32;;;;;;;88.65;42.00;;;;;;;-140.05;100.00;61859.38;5027492;28;20571;-64
2021/01/02 02:43:01;;;;;;;93.53;44.72;;;;;;;-140.05;100.00;61859.38;5028059;28;20377;-67
2021/01/02 02:45:30;;;;;;;119.10;50.38;;;;;;;-140.05;100.00;61859.38;5024917;28;20185;-67
2021/01/02 02:48:04;;;;;;;114.18;49.67;;;;;;;-140.05;100.00;61859.38;5027365;28;20213;-65
2021/01/02 02:50:31;;;;;;;115.60;51.75;;;;;;;-140.05;100.00;61859.38;5025323;28;20204;-66
2021/01/02 02:53:12;;;;;;;116.55;52.83;;;;;;;-140.05;100.00;61859.38;5027803;28;20196;-64
2021/01/02 02:55:40;;;;;;;113.05;53.95;;;;;;;-140.05;100.00;61859.38;5026005;28;20595;-62
2021/01/02 02:58:07;;;;;;;123.70;55.05;;;;;;;-140.05;100.00;61859.38;5025022;28;20185;-66
2021/01/02 03:00:35;;;;;;;106.15;51.20;;;;;;;-140.05;100.00;61859.38;5026928;28;20613;-65
2021/01/02 03:03:02;;;;;;;107.47;51.80;;;;;;;-140.05;100.00;61859.38;5027190;28;20718;-67
2021/01/02 03:05:29;;;;;;;115.38;52.33;;;;;;;-140.05;100.00;61859.38;5033200;28;20669;-63
2021/01/02 03:07:56;;;;;;;115.07;54.92;;;;;;;-140.05;100.00;61859.38;5029491;28;20188;-66
2021/01/02 03:10:24;;;;;;;121.05;56.85;;;;;;;-140.05;100.00;61859.38;5033012;28;20197;-65
2021/01/02 03:12:52;;;;;;;123.28;57.97;;;;;;;-140.05;100.00;61859.38;5033517;28;20574;-66
2021/01/02 03:15:22;;;;;;;121.57;56.65;;;;;;;-140.05;100.00;61859.38;5033372;28;20281;-62
2021/01/02 03:17:49;;;;;;;122.47;56.85;;;;;;;-140.05;100.00;61859.38;5031795;28;20217;-67
2021/01/02 03:20:17;;;;;;;115.78;54.78;;;;;;;-140.05;100.00;61859.38;5033201;28;20188;-64
2021/01/02 03:22:46;;;;;;;112.68;53.35;;;;;;;-140.05;100.00;61859.38;5033841;28;20207;-67
2021/01/02 03:25:16;;;;;;;115.03;52.90;;;;;;;-140.05;100.00;61859.38;5034717;28;20189;-67
2021/01/02 03:27:43;;;;;;;112.65;54.58;;;;;;;-140.05;100.00;61859.38;5033980;28;20199;-65
2021/01/02 03:30:13;;;;;;;107.50;50.65;;;;;;;-140.05;100.00;61859.38;5033398;28;20304;-65
2021/01/02 03:32:39;;;;;;;107.05;50.53;;;;;;;-140.05;100.00;61859.38;5033651;28;20251;-63
2021/01/02 03:35:09;;;;;;;112.47;51.33;;;;;;;-140.05;100.00;61859.38;5030304;28;20225;-65
2021/01/02 03:37:38;;;;;;;102.65;49.00;;;;;;;-140.05;100.00;61859.38;5034166;28;20543;-65
2021/01/02 03:40:06;;;;;;;106.10;48.10;;;;;;;-140.05;100.00;61859.38;5032991;28;20213;-65
2021/01/02 03:42:39;;;;;;;99.07;45.90;;;;;;;-140.05;100.00;61859.38;5033271;28;20186;-67
2021/01/02 03:45:08;;;;;;;98.18;46.72;;;;;;;-140.05;100.00;61859.38;5030467;28;20472;-66
2021/01/02 03:47:36;;;;;;;107.93;47.70;;;;;;;-140.05;100.00;61859.38;5033187;28;20202;-64
2021/01/02 03:50:04;;;;;;;95.40;45.72;;;;;;;-140.05;100.00;61859.38;5033092;28;20289;-65
2021/01/02 03:52:30;;;;;;;95.22;44.15;;;;;;;-140.05;100.00;61859.38;5033754;28;20305;-65
2021/01/02 03:54:57;;;;;;;116.93;53.38;;;;;;;-140.05;100.00;61859.38;5032863;28;20230;-63
2021/01/02 03:57:25;;;;;;;114.50;53.65;;;;;;;-140.05;100.00;61859.38;5033730;28;20205;-64
2021/01/02 03:59:51;;;;;;;132.82;57.53;;;;;;;-140.05;100.00;61859.38;5033099;28;20185;-63
2021/01/02 04:02:17;;;;;;;127.82;58.53;;;;;;;-140.05;100.00;61859.38;5033481;28;20285;-66
2021/01/02 04:04:44;;;;;;;124.78;58.03;;;;;;;-140.05;100.00;61859.38;5033335;28;20193;-63
2021/01/02 04:07:10;;;;;;;127.65;56.63;;;;;;;-140.05;100.00;61859.38;5036712;28;20251;-66
2021/01/02 04:09:37;;;;;;;126.30;58.40;;;;;;;-140.05;100.00;61859.38;5047884;28;20185;-65
2021/01/02 04:12:03;;;;;;;131.25;62.25;;;;;;;-140.05;100.00;61859.38;5033166;28;20281;-65
2021/01/02 04:14:30;;;;;;;141.43;62.95;;;;;;;-140.05;100.00;61859.38;5032869;28;20205;-64
2021/01/02 04:16:56;;;;;;;139.23;64.28;;;;;;;-140.05;100.00;61859.38;5029853;28;20308;-69
2021/01/02 04:19:25;;;;;;;150.15;71.40;;;;;;;-140.05;100.00;61859.38;5029856;28;20201;-63
2021/01/02 04:21:51;;;;;;;148.10;72.20;;;;;;;-140.05;100.00;61859.38;5030278;28;20189;-63
2021/01/02 04:24:18;;;;;;;147.15;68.47;;;;;;;-140.05;100.00;61859.38;5029628;28;20189;-65
2021/01/02 04:26:44;;;;;;;140.07;67.35;;;;;;;-140.05;100.00;61859.38;5032118;28;20204;-65
2021/01/02 04:29:10;;;;;;;148.40;68.15;;;;;;;-140.05;100.00;61859.38;5030506;28;20208;-64
2021/01/02 04:31:39;;;;;;;145.38;66.63;;;;;;;-140.05;100.00;61859.38;5031844;28;20215;-67
2021/01/02 04:34:08;;;;;;;139.88;67.03;;;;;;;-140.05;100.00;61859.38;5031021;28;20233;-65
2021/01/02 04:36:37;;;;;;;143.77;66.25;;;;;;;-140.05;100.00;61859.38;5030901;28;20228;-66
2021/01/02 04:39:05;;;;;;;142.10;66.10;;;;;;;-140.05;100.00;61859.38;5030335;28;20280;-65
2021/01/02 04:41:33;;;;;;;138.73;65.85;;;;;;;-140.05;100.00;61859.38;5030710;28;20185;-66
2021/01/02 04:44:02;;;;;;;139.70;66.45;;;;;;;-140.05;100.00;61859.38;5029470;28;20190;-62
2021/01/02 04:46:29;;;;;;;148.65;71.93;;;;;;;-140.05;100.00;61859.38;5026414;28;20276;-63
2021/01/02 04:48:58;;;;;;;140.38;67.00;;;;;;;-140.05;100.00;61859.38;5029202;28;20185;-65
2021/01/02 04:51:24;;;;;;;148.60;68.82;;;;;;;-140.05;100.00;61859.38;5029589;28;20219;-63
2021/01/02 04:53:51;;;;;;;138.52;65.43;;;;;;;-140.05;100.00;61859.38;5029421;28;20197;-62
2021/01/02 04:56:20;;;;;;;140.40;67.10;;;;;;;-140.05;100.00;61859.38;5029594;28;20205;-64
2021/01/02 04:58:48;;;;;;;142.30;67.85;;;;;;;-140.05;100.00;61859.38;5029009;28;20204;-66
2021/01/02 05:01:16;;;;;;;143.05;65.20;;;;;;;-140.05;100.00;61859.38;5028978;28;20193;-68
2021/01/02 05:03:44;;;;;;;137.25;65.70;;;;;;;-140.05;100.00;61859.38;5029167;28;20181;-65
2021/01/02 05:06:12;;;;;;;136.32;67.90;;;;;;;-140.05;100.00;61859.38;5026768;28;20200;-65
2021/01/02 05:08:39;;;;;;;140.50;68.75;;;;;;;-140.05;100.00;61859.38;5029258;28;20217;-66
2021/01/02 05:11:07;;;;;;;135.13;68.10;;;;;;;-140.05;100.00;61859.38;5029056;28;20276;-63
2021/01/02 05:13:37;;;;;;;132.20;67.78;;;;;;;-140.05;100.00;61859.38;5029230;28;20309;-64
2021/01/02 05:16:20;;;;;;;144.00;68.63;;;;;;;-140.05;100.00;61859.38;5028292;28;20656;-63
2021/01/02 05:18:52;;;;;;;140.15;64.30;;;;;;;-140.05;100.00;61859.38;5028525;28;20189;-66
2021/01/02 05:21:18;;;;;;;132.82;62.72;;;;;;;-140.05;100.00;61859.38;5029400;28;20201;-65
2021/01/02 05:24:03;;;;;;;124.53;62.03;;;;;;;-140.05;100.00;61859.38;5029128;28;20186;-64
2021/01/02 05:26:34;;;;;;;120.88;58.22;;;;;;;-140.05;100.00;61859.38;5025840;28;20193;-66
2021/01/02 05:29:28;;;;;;;116.93;56.85;;;;;;;-140.05;100.00;61859.38;5028476;28;20561;-65
2021/01/02 05:32:01;;;;;;;110.35;53.33;;;;;;;-140.05;100.00;61859.38;5028048;28;20239;-66
2021/01/02 05:34:29;;;;;;;108.32;53.45;;;;;;;-140.05;100.00;61859.38;5027910;28;20252;-63
2021/01/02 05:37:04;;;;;;;105.85;51.95;;;;;;;-140.05;100.00;61859.38;5028874;28;20231;-66
2021/01/02 05:39:35;;;;;;;105.13;51.42;;;;;;;-140.05;100.00;61859.38;5027212;28;20203;-65
2021/01/02 05:42:01;;;;;;;101.18;50.38;;;;;;;-140.05;100.00;61859.38;5028821;28;20193;-64
2021/01/02 05:44:32;;;;;;;96.18;50.35;;;;;;;-140.05;100.00;61859.38;5027993;28;20189;-66
2021/01/02 05:46:58;;;;;;;99.68;49.45;;;;;;;-140.05;100.00;61859.38;5028514;28;20652;-66
2021/01/02 05:49:38;;;;;;;97.05;47.63;;;;;;;-140.05;100.00;61859.38;5028263;28;20208;-65
2021/01/02 05:52:12;;;;;;;91.78;47.65;;;;;;;-140.05;100.00;61859.38;5028542;28;20274;-66
2021/01/02 05:54:45;;;;;;;95.22;47.55;;;;;;;-140.05;100.00;61859.38;5026329;28;20208;-68
2021/01/02 05:57:13;;;;;;;97.93;48.72;;;;;;;-140.05;100.00;61859.38;5025990;28;20221;-64
2021/01/02 05:59:41;;;;;;;101.88;50.95;;;;;;;-140.05;100.00;61859.38;5028511;28;20189;-67
2021/01/02 06:02:29;;;;;;;103.65;52.08;;;;;;;-140.05;100.00;61859.38;5028401;28;20201;-65
2021/01/02 06:05:08;;;;;;;102.60;51.90;;;;;;;-140.05;100.00;61859.38;5025261;28;20320;-65
2021/01/02 06:07:38;;;;;;;104.85;51.20;;;;;;;-140.05;100.00;61859.38;5025706;28;20205;-67
2021/01/02 06:10:10;;;;;;;100.60;49.00;;;;;;;-140.05;100.00;61859.38;5027850;28;20217;-67
2021/01/02 06:12:38;;;;;;;97.60;49.25;;;;;;;-140.05;100.00;61859.38;5025919;28;20271;-64
2021/01/02 06:15:06;;;;;;;95.82;49.00;;;;;;;-140.05;100.00;61859.38;5027577;28;20284;-66
2021/01/02 06:17:34;;;;;;;94.72;47.17;;;;;;;-140.05;100.00;61859.38;5025582;28;20287;-62
2021/01/02 06:20:05;;;;;;;87.53;47.10;;;;;;;-140.05;100.00;61859.38;5027393;28;20293;-64
2021/01/02 06:22:33;;;;;;;89.18;45.42;;;;;;;-140.05;100.00;61859.38;5028259;28;20201;-64
2021/01/02 06:25:00;;;;;;;86.45;44.35;;;;;;;-140.05;100.00;61859.38;5027326;28;20247;-66
2021/01/02 06:27:26;;;;;;;84.35;43.30;;;;;;;-140.05;100.00;61859.38;5027807;28;20267;-65
2021/01/02 06:29:56;;;;;;;79.28;42.30;;;;;;;-140.05;100.00;61859.38;5027161;28;20922;-69
2021/01/02 06:32:25;;;;;;;82.20;43.05;;;;;;;-140.05;100.00;61859.38;5028115;28;20221;-66
2021/01/02 06:35:10;;;;;;;75.47;40.15;;;;;;;-140.05;100.00;61859.38;5024791;28;20271;-65
2021/01/02 06:37:49;;;;;;;82.85;43.15;;;;;;;-140.05;100.00;61859.38;5025356;28;20611;-68
2021/01/02 06:40:19;;;;;;;83.13;43.58;;;;;;;-140.05;100.00;61859.38;5024826;28;20181;-66
2021/01/02 06:42:57;;;;;;;81.40;43.15;;;;;;;-140.05;100.00;61859.38;5027607;28;20201;-63
2021/01/02 06:45:40;;;;;;;77.78;42.20;;;;;;;-140.05;100.00;61859.38;5026995;28;20255;-67
2021/01/02 06:48:16;;;;;;;82.57;41.17;;;;;;;-140.05;100.00;61859.38;5027363;28;20197;-63
2021/01/02 06:50:48;;;;;;;76.63;39.72;;;;;;;-140.05;100.00;61859.38;5027028;28;20298;-64
2021/01/02 06:53:25;;;;;;;73.53;40.00;;;;;;;-140.05;100.00;61859.38;5025395;28;20232;-62
2021/01/02 06:56:09;;;;;;;80.60;41.22;;;;;;;-140.05;100.00;61859.38;5024434;28;20707;-65
2021/01/02 06:58:44;;;;;;;75.10;39.15;;;;;;;-140.05;100.00;61859.38;5025732;28;20267;-68
2021/01/02 07:01:16;;;;;;;68.75;36.30;;;;;;;-140.05;100.00;61859.38;5024831;28;20682;-66
2021/01/02 07:03:46;;;;;;;58.70;32.50;;;;;;;-140.05;100.00;61859.38;5027388;28;20584;-65
2021/01/02 07:06:21;;;;;;;59.78;32.35;;;;;;;-140.05;100.00;61859.38;5024660;28;20192;-66
2021/01/02 07:09:14;;;;;;;49.65;28.48;;;;;;;-140.05;100.00;61859.38;5027141;28;20268;-66
2021/01/02 07:11:46;;;;;;;50.33;27.17;;;;;;;-140.05;100.00;61859.38;5026670;28;20189;-64
2021/01/02 07:14:12;;;;;;;49.35;24.73;;;;;;;-140.05;100.00;61859.38;5028647;28;20643;-67
2021/01/02 07:16:51;;;;;;;39.88;21.90;;;;;;;-140.05;100.00;61859.38;5026833;28;20247;-69
2021/01/02 07:22:02;;;;;;;39.42;22.00;;;;;;;-140.05;100.00;61859.38;5024891;28;20213;-65
2021/01/02 07:24:39;;;;;;;38.05;21.27;;;;;;;-140.05;100.00;61859.38;5026235;28;20675;-63
2021/01/02 07:27:09;;;;;;;44.15;23.95;;;;;;;-140.05;100.00;61859.38;5027493;28;20683;-63
2021/01/02 07:29:39;;;;;;;48.10;24.30;;;;;;;-140.05;100.00;61859.38;5026777;28;20717;-65
2021/01/02 07:32:08;;;;;;;45.53;25.58;;;;;;;-140.05;100.00;61859.38;5027042;28;21595;-65
2021/01/02 07:34:35;;;;;;;47.10;25.30;;;;;;;-140.05;100.00;61859.38;5024077;28;20324;-64
2021/01/02 07:37:04;;;;;;;41.67;23.80;;;;;;;-140.05;100.00;61859.38;5027049;28;20300;-69
2021/01/02 07:39:30;;;;;;;40.55;22.63;;;;;;;-140.05;100.00;61859.38;5026340;28;20284;-66
2021/01/02 07:42:03;;;;;;;40.08;22.23;;;;;;;-140.05;100.00;61859.38;5027114;28;20178;-64
2021/01/02 07:44:29;;;;;;;35.22;20.02;;;;;;;-140.05;100.00;61859.38;5026579;28;20679;-63
2021/01/02 07:46:56;;;;;;;35.85;19.85;;;;;;;-140.05;100.00;61859.38;5027490;28;20284;-63
2021/01/02 07:49:22;;;;;;;30.80;19.00;;;;;;;-140.05;100.00;61859.38;5026516;28;20189;-63
2021/01/02 07:51:49;;;;;;;31.35;17.83;;;;;;;-140.05;100.00;61859.38;5029898;28;20196;-66
2021/01/02 07:54:31;;;;;;;29.70;17.33;;;;;;;-140.05;100.00;61859.38;5030543;28;20190;-65
2021/01/02 07:56:58;;;;;;;27.45;16.00;;;;;;;-140.05;100.00;61859.38;5028903;28;20215;-64
2021/01/02 07:59:30;;;;;;;26.85;16.85;;;;;;;-140.05;100.00;61859.38;5028840;28;20190;-64
2021/01/02 08:02:07;;;;;;;34.35;18.00;;;;;;;-140.05;100.00;61859.38;5030839;28;20194;-66
2021/01/02 08:04:35;;;;;;;27.20;16.42;;;;;;;-140.05;100.00;61859.38;5027753;28;20289;-65
2021/01/02 08:07:06;;;;;;;31.13;18.50;;;;;;;-140.05;100.00;61859.38;5030522;28;20259;-65
2021/01/02 08:09:34;;;;;;;28.95;18.33;;;;;;;-140.05;100.00;61859.38;5027209;28;20279;-67
2021/01/02 08:12:09;;;;;;;27.95;17.27;;;;;;;-140.05;100.00;61859.38;5030483;28;20574;-65
2021/01/02 08:14:37;;;;;;;29.48;18.63;;;;;;;-140.05;100.00;61859.38;5027492;28;20267;-66
2021/01/02 08:17:12;;;;;;;32.25;18.98;;;;;;;-140.05;100.00;61859.38;5030929;28;20308;-67
2021/01/02 08:19:45;;;;;;;32.13;18.45;;;;;;;-140.05;100.00;61859.38;5028280;28;20291;-62
2021/01/02 08:22:13;;;;;;;31.88;17.73;;;;;;;-140.05;100.00;61859.38;5029837;28;20196;-67
2021/01/02 08:24:43;;;;;;;31.47;19.00;;;;;;;-140.05;100.00;61859.38;5029904;28;20280;-69
2021/01/02 08:27:10;;;;;;;29.30;17.55;;;;;;;-140.05;100.00;61859.38;5030976;28;20718;-67
2021/01/02 08:29:36;;;;;;;28.40;17.75;;;;;;;-140.05;100.00;61859.38;5029616;28;20193;-63
2021/01/02 08:32:10;;;;;;;29.77;17.63;;;;;;;-140.05;100.00;61859.38;5029276;28;20197;-63
2021/01/02 08:34:37;;;;;;;26.33;16.45;;;;;;;-140.05;100.00;61859.38;5027018;28;20220;-67
2021/01/02 08:37:09;;;;;;;29.58;17.80;;;;;;;-140.05;100.00;61859.38;5029824;28;20726;-66
2021/01/02 08:39:38;;;;;;;31.98;18.38;;;;;;;-140.05;100.00;61859.38;5027256;28;20644;-68
2021/01/02 08:42:06;;;;;;;32.37;18.17;;;;;;;-140.05;100.00;61859.38;5045282;28;20548;-63
2021/01/02 08:44:45;;;;;;;34.63;19.30;;;;;;;-140.05;100.00;61859.38;5024265;28;20494;-65
2021/01/02 08:47:24;;;;;;;31.23;19.40;;;;;;;-140.05;100.00;61859.38;5029808;28;20185;-72
2021/01/02 08:49:51;;;;;;;29.65;18.40;;;;;;;-140.05;100.00;61859.38;5033833;28;20193;-68
2021/01/02 08:52:25;;;;;;;31.33;18.05;;;;;;;-140.05;100.00;61859.38;5029385;28;20283;-64
2021/01/02 08:55:08;;;;;;;28.47;17.67;;;;;;;-140.05;100.00;61859.38;5027721;28;20733;-65
2021/01/02 08:57:44;;;;;;;31.60;18.63;;;;;;;-140.05;100.00;61859.38;5026666;28;21134;-68
2021/01/02 09:00:15;;;;;;;31.43;18.63;;;;;;;-140.05;100.00;61859.38;5027614;28;20456;-66
2021/01/02 09:03:03;;;;;;;34.37;20.70;;;;;;;-140.05;100.00;61859.38;5028688;28;20440;-62
2021/01/02 09:05:31;;;;;;;33.80;20.63;;;;;;;-140.05;100.00;61859.38;5028219;28;21008;-67
2021/01/02 09:08:00;;;;;;;31.50;19.87;;;;;;;-140.05;100.00;61859.38;5030089;28;20425;-67
2021/01/02 09:10:30;;;;;;;32.67;22.50;;;;;;;-140.05;100.00;61859.38;5029280;28;21230;-63
2021/01/02 09:13:00;;;;;;;38.40;23.10;;;;;;;-140.05;100.00;61859.38;5026323;28;20821;-65
2021/01/02 09:15:47;;;;;;;39.53;25.83;;;;;;;-140.05;100.00;61859.38;5028787;28;20490;-69
2021/01/02 09:18:25;;;;;;;46.53;29.87;;;;;;;-140.05;100.00;61859.38;5028822;28;20443;-64
2021/01/02 09:20:52;;;;;;;49.23;30.27;;;;;;;-140.05;100.00;61859.38;5028395;28;20522;-66
2021/01/02 09:23:29;;;;;;;47.37;29.03;;;;;;;-140.05;100.00;61859.38;5028746;28;20428;-68
2021/01/02 09:26:04;;;;;;;47.63;30.47;;;;;;;-140.05;100.00;61859.38;5026900;28;20538;-64
2021/01/02 09:28:41;;;;;;;48.20;30.50;;;;;;;-140.05;100.00;61859.38;5028703;28;20439;-70
2021/01/02 09:31:07;;;;;;;54.73;35.37;;;;;;;-140.05;100.00;61859.38;5028735;28;20872;-65
2021/01/02 09:33:33;;;;;;;60.13;37.53;;;;;;;-140.05;100.00;61859.38;5028931;28;20446;-69
2021/01/02 09:36:03;;;;;;;49.63;33.40;;;;;;;-140.05;100.00;61859.38;5028476;28;20467;-66
2021/01/02 09:38:29;;;;;;;52.47;32.53;;;;;;;-140.05;100.00;61859.38;5030892;28;20468;-66
2021/01/02 09:40:56;;;;;;;55.97;34.83;;;;;;;-140.05;100.00;61859.38;5027346;28;20471;-63
2021/01/02 09:43:23;;;;;;;45.80;29.17;;;;;;;-140.05;100.00;61859.38;5030821;28;20528;-66
2021/01/02 09:45:50;;;;;;;42.30;26.00;;;;;;;-140.05;100.00;61859.38;5026391;28;20459;-68
2021/01/02 09:48:17;;;;;;;39.67;27.33;;;;;;;-140.05;100.00;61859.38;5026155;28;20440;-68
2021/01/02 09:50:45;;;;;;;48.50;31.23;;;;;;;-140.05;100.00;61859.38;5028237;28;20464;-66
2021/01/02 09:53:14;;;;;;;44.90;29.57;;;;;;;-140.05;100.00;61859.38;5028131;28;20527;-66
2021/01/02 09:55:40;;;;;;;41.73;29.73;;;;;;;-140.05;100.00;61859.38;5027370;28;20431;-66
2021/01/02 09:58:08;;;;;;;43.83;27.40;;;;;;;-140.05;100.00;61859.38;5028299;28;20487;-68
2021/01/02 10:00:35;;;;;;;40.23;26.23;;;;;;;-140.05;100.00;61859.38;5028466;28;20447;-66
2021/01/02 10:03:01;;;;;;;40.33;25.60;;;;;;;-140.05;100.00;61859.38;5028458;28;20440;-67
2021/01/02 10:05:42;;;;;;;37.40;25.03;;;;;;;-140.05;100.00;61859.38;5026154;28;20965;-66
2021/01/02 10:08:09;;;;;;;33.67;22.90;;;;;;;-140.05;100.00;61859.38;5028755;28;20443;-67
2021/01/02 10:10:35;;;;;;;33.50;22.13;;;;;;;-140.05;100.00;61859.38;5028708;28;20424;-67
2021/01/02 10:13:02;;;;;;;32.40;21.70;;;;;;;-140.05;100.00;61859.38;5028905;28;20523;-69
2021/01/02 10:15:29;;;;;;;33.57;20.97;;;;;;;-140.05;100.00;61859.38;5027867;28;20435;-68
2021/01/02 10:17:57;;;;;;;34.13;21.23;;;;;;;-140.05;100.00;61859.38;5028732;28;20474;-67
2021/01/02 10:20:24;;;;;;;29.10;20.20;;;;;;;-140.05;100.00;61859.38;5028237;28;20642;-67
2021/01/02 10:22:53;;;;;;;29.87;18.57;;;;;;;-140.05;100.00;61859.38;5028523;28;20443;-65
2021/01/02 10:25:20;;;;;;;28.90;19.10;;;;;;;-140.05;100.00;61859.38;5028135;28;20440;-66
2021/01/02 10:27:46;;;;;;;28.63;18.63;;;;;;;-140.05;100.00;61859.38;5048881;28;20448;-65
2021/01/02 10:30:14;;;;;;;25.70;16.93;;;;;;;-140.05;100.00;61859.38;5030918;28;20535;-72
2021/01/02 10:32:42;;;;;;;27.30;17.70;;;;;;;-140.05;100.00;61859.38;5029019;28;20487;-72
2021/01/02 10:35:11;;;;;;;24.43;16.17;;;;;;;-140.05;100.00;61859.38;5028253;28;20562;-71
2021/01/02 10:37:38;;;;;;;25.20;14.77;;;;;;;-140.05;100.00;61859.38;5028998;28;20479;-65
2021/01/02 10:40:10;;;;;;;20.17;13.87;;;;;;;-140.05;100.00;61859.38;5028254;28;20980;-69
2021/01/02 10:42:37;;;;;;;19.90;13.20;;;;;;;-140.05;100.00;61859.38;5026469;28;20451;-67
2021/01/02 10:45:04;;;;;;;18.63;11.63;;;;;;;-140.05;100.00;61859.38;5028162;28;20532;-65
2021/01/02 10:47:31;;;;;;;19.90;12.10;;;;;;;-140.05;100.00;61859.38;5029034;28;20438;-68
2021/01/02 10:49:58;;;;;;;25.87;17.93;;;;;;;-140.05;100.00;61859.38;5027773;28;20962;-63
2021/01/02 10:52:26;;;;;;;53.10;37.23;;;;;;;-140.05;100.00;61859.38;5027959;28;20438;-70
2021/01/02 10:54:55;;;;;;;15.47;11.13;;;;;;;-140.05;100.00;61859.38;5027625;28;20438;-70
2021/01/02 10:57:25;;;;;;;16.10;9.73;;;;;;;-140.05;100.00;61859.38;5027756;28;20574;-63
2021/01/02 10:59:52;;;;;;;15.97;9.67;;;;;;;-140.05;100.00;61859.38;5027902;28;20516;-61
2021/01/02 11:02:20;;;;;;;14.47;9.50;;;;;;;-140.05;100.00;61859.38;5027986;28;20455;-63
2021/01/02 11:04:46;;;;;;;36.47;27.07;;;;;;;-140.05;100.00;61859.38;5027102;28;20461;-68
2021/01/02 11:07:13;;;;;;;226.03;160.10;;;;;;;-140.05;100.00;61859.38;5027811;28;20815;-66
2021/01/02 11:09:43;;;;;;;44.80;31.13;;;;;;;-140.05;100.00;61859.38;5027908;28;20452;-65
2021/01/02 11:12:09;;;;;;;94.83;60.27;;;;;;;-140.05;100.00;61859.38;5028039;28;20440;-70
2021/01/02 11:14:39;;;;;;;119.73;82.83;;;;;;;-140.05;100.00;61859.38;5027470;28;20526;-68